Time;durP1;ratioP1;P1;durP2;ratioP2;P2;SDS_P1;SDS_P2;PMS_P1;PMS_P2;Temp;Humidity;BMP_temperature;BMP_pressure;BME280_temperature;BME280_humidity;BME280_pressure;Samples;Min_cycle;Max_cycle;Signal;HPM_P1;HPM_P2
2022/01/25 00:24:17;;;;;;;10.60;9.57;;;;;;;17.73;51.06;103618.69;4967904;29;20075;-81
2022/01/25 00:26:58;;;;;;;10.95;9.95;;;;;;;17.72;50.98;103615.19;4959775;29;20474;-80
2022/01/25 00:29:34;;;;;;;10.57;9.57;;;;;;;17.72;50.93;103601.28;4931817;29;20161;-80
2022/01/25 00:31:59;;;;;;;11.18;10.07;;;;;;;17.72;51.14;103615.19;4944043;29;20031;-80
2022/01/25 00:34:24;;;;;;;10.70;9.70;;;;;;;17.72;50.65;103620.38;4943588;29;20042;-80
2022/01/25 00:36:50;;;;;;;10.43;9.43;;;;;;;17.70;50.22;103609.03;4943373;29;20059;-79
2022/01/25 00:39:15;;;;;;;10.68;9.68;;;;;;;17.71;50.76;103608.22;4928363;29;20031;-80
2022/01/25 00:41:40;;;;;;;10.35;9.35;;;;;;;17.71;50.90;103605.63;4944795;29;20031;-80
2022/01/25 00:44:06;;;;;;;10.00;9.10;;;;;;;17.69;50.33;103600.34;4928519;29;20035;-80
2022/01/25 00:46:31;;;;;;;10.88;9.88;;;;;;;17.69;50.69;103599.47;4928788;29;20078;-80
2022/01/25 00:49:01;;;;;;;10.98;9.90;;;;;;;17.69;50.61;103595.13;4928684;29;20039;-80
2022/01/25 00:56:48;;;;;;;10.77;9.77;;;;;;;17.69;50.29;103604.66;4962038;29;20113;-80
2022/01/25 00:59:20;;;;;;;10.30;9.32;;;;;;;17.69;50.46;103599.47;4944023;29;20031;-80
2022/01/25 01:01:47;;;;;;;10.88;9.88;;;;;;;17.68;50.44;103600.28;4959942;29;20027;-80
2022/01/25 01:04:13;;;;;;;11.18;10.13;;;;;;;17.67;50.36;103602.00;4943282;29;20062;-80
2022/01/25 01:06:41;;;;;;;11.00;10.00;;;;;;;17.68;50.35;103595.97;4941217;29;20086;-80
2022/01/25 01:09:09;;;;;;;10.27;9.27;;;;;;;17.68;50.55;103589.84;4940575;29;20048;-80
2022/01/25 01:11:41;;;;;;;10.35;9.38;;;;;;;17.66;50.61;103589.84;4956076;28;20054;-80
2022/01/25 01:14:58;;;;;;;10.73;9.73;;;;;;;17.67;50.66;103588.97;4955680;29;20031;-80
2022/01/25 01:17:14;;;;;;;10.52;9.55;;;;;;;17.67;50.60;103588.09;4951304;29;20035;-80
2022/01/25 01:30:56;;;;;;;10.40;9.40;;;;;;;17.66;50.01;103581.16;4947947;29;20114;-80
2022/01/25 01:41:51;;;;;;;10.65;9.65;;;;;;;17.66;49.98;103591.56;4940595;29;20043;-80
2022/01/25 01:44:21;;;;;;;10.52;9.52;;;;;;;17.65;50.07;103584.56;4933108;29;20493;-80
2022/01/25 01:47:04;;;;;;;9.68;8.77;;;;;;;17.64;50.11;103588.00;4965108;28;20035;-81
2022/01/25 01:49:31;;;;;;;10.23;9.30;;;;;;;17.64;50.19;103585.41;4936007;29;20373;-80
2022/01/25 01:51:56;;;;;;;10.18;9.23;;;;;;;17.64;50.07;103588.00;4959700;28;20038;-80
2022/01/25 01:54:22;;;;;;;10.80;9.50;;;;;;;17.63;50.25;103581.03;4943402;29;20035;-79
2022/01/25 01:56:47;;;;;;;10.60;9.60;;;;;;;17.64;49.90;103585.41;4959489;28;20031;-80
2022/01/25 01:59:16;;;;;;;10.57;9.60;;;;;;;17.62;50.03;103582.75;4961597;29;20035;-80
2022/01/25 02:01:44;;;;;;;10.15;9.25;;;;;;;17.62;49.89;103580.13;4961953;28;20037;-80
2022/01/25 02:04:15;;;;;;;10.85;9.85;;;;;;;17.61;49.88;103572.28;4964702;28;20059;-81
2022/01/25 02:06:41;;;;;;;11.05;10.05;;;;;;;17.63;49.84;103568.00;4947643;29;20035;-80
2022/01/25 02:09:09;;;;;;;10.13;9.20;;;;;;;17.62;50.30;103574.94;4946672;29;20028;-80
2022/01/25 02:11:35;;;;;;;10.73;9.73;;;;;;;17.61;49.63;103565.34;4961451;28;20034;-80
2022/01/25 02:14:05;;;;;;;11.10;10.02;;;;;;;17.63;49.73;103570.59;4959466;28;20038;-79
2022/01/25 02:24:44;;;;;;;10.50;9.48;;;;;;;17.61;49.81;103567.94;4963660;29;20042;-80
2022/01/25 02:27:11;;;;;;;9.90;9.00;;;;;;;17.61;49.68;103554.91;4946538;29;20410;-80
2022/01/25 02:29:37;;;;;;;10.88;9.88;;;;;;;17.59;49.48;103553.97;4944537;29;20023;-79
2022/01/25 02:32:05;;;;;;;10.98;9.98;;;;;;;17.61;49.49;103556.66;4926175;29;20046;-80
2022/01/25 02:34:30;;;;;;;10.35;9.32;;;;;;;17.60;49.81;103560.97;4942846;29;20031;-81
2022/01/25 02:37:07;;;;;;;10.88;9.88;;;;;;;17.57;49.23;103553.06;4959033;28;20066;-79
2022/01/25 02:39:34;;;;;;;10.90;9.93;;;;;;;17.59;49.69;103555.72;4960668;28;20027;-81
2022/01/25 02:42:00;;;;;;;10.75;9.68;;;;;;;17.59;49.57;103553.09;4960868;28;20027;-80
2022/01/25 02:44:27;;;;;;;10.48;9.50;;;;;;;17.59;49.81;103550.50;4960958;29;20031;-80
2022/01/25 02:49:27;;;;;;;11.07;10.00;;;;;;;17.58;49.20;103557.44;4977334;28;20031;-81
2022/01/25 02:51:52;;;;;;;10.93;9.93;;;;;;;17.59;49.18;103550.50;4976055;29;20095;-80
2022/01/25 02:54:18;;;;;;;10.98;9.98;;;;;;;17.58;49.42;103553.94;4950928;28;20031;-80
2022/01/25 02:56:45;;;;;;;11.35;10.25;;;;;;;17.58;49.59;103559.16;4948287;29;20031;-80
2022/01/25 02:59:13;;;;;;;10.50;9.60;;;;;;;17.59;49.73;103558.31;4963287;29;20051;-80
2022/01/25 03:01:39;;;;;;;10.10;9.20;;;;;;;17.58;50.05;103559.16;4963493;29;20031;-79
2022/01/25 03:04:07;;;;;;;10.93;9.93;;;;;;;17.58;49.59;103553.94;4947830;29;20118;-80
2022/01/25 03:06:34;;;;;;;10.88;9.88;;;;;;;17.57;49.53;103549.56;4964399;28;20474;-81
2022/01/25 03:09:00;;;;;;;10.75;9.75;;;;;;;17.56;49.38;103551.28;4947518;29;20122;-79
2022/01/25 03:11:26;;;;;;;10.40;9.50;;;;;;;17.56;49.30;103553.88;4944948;29;20066;-80
2022/01/25 03:13:55;;;;;;;10.25;9.35;;;;;;;17.56;49.64;103553.88;4941955;29;20050;-80
2022/01/25 03:16:32;;;;;;;10.98;9.98;;;;;;;17.56;49.13;103553.88;4943219;29;20038;-80
2022/01/25 03:19:01;;;;;;;10.52;9.55;;;;;;;17.56;49.12;103555.63;4960317;28;20498;-80
2022/01/25 03:23:53;;;;;;;10.88;9.77;;;;;;;17.54;49.34;103550.34;4941824;29;20027;-79
2022/01/25 03:26:19;;;;;;;10.82;9.85;;;;;;;17.54;49.37;103546.88;4940739;29;20031;-79
2022/01/25 03:28:44;;;;;;;10.77;9.77;;;;;;;17.54;49.80;103544.25;4957917;28;20027;-80
2022/01/25 03:31:10;;;;;;;11.25;10.15;;;;;;;17.53;49.51;103552.88;4940279;29;20374;-80
2022/01/25 03:33:37;;;;;;;10.25;9.35;;;;;;;17.53;49.30;103543.38;4956506;29;20039;-80
2022/01/25 03:36:03;;;;;;;10.63;9.63;;;;;;;17.52;49.19;103549.41;4940860;29;20027;-79
2022/01/25 03:38:29;;;;;;;10.90;9.90;;;;;;;17.52;49.29;103540.72;4940692;29;20035;-79
2022/01/25 03:40:54;;;;;;;10.15;9.18;;;;;;;17.52;49.44;103540.72;4924957;29;20047;-80
2022/01/25 03:43:20;;;;;;;10.23;9.32;;;;;;;17.53;49.16;103542.47;4957430;28;20506;-80
2022/01/25 03:45:58;;;;;;;9.82;8.93;;;;;;;17.52;49.19;103543.31;4955832;28;20433;-80
2022/01/25 03:50:51;;;;;;;10.32;9.40;;;;;;;17.52;49.25;103543.31;4956057;29;20414;-79
2022/01/25 03:53:19;;;;;;;10.82;9.88;;;;;;;17.50;49.26;103538.06;4960139;28;20023;-80
2022/01/25 03:55:49;;;;;;;10.38;9.38;;;;;;;17.50;49.42;103539.78;4955452;28;20023;-80
2022/01/25 03:58:15;;;;;;;9.52;8.65;;;;;;;17.50;49.72;103542.38;4955310;28;20027;-79
2022/01/25 04:00:42;;;;;;;10.40;9.40;;;;;;;17.50;49.32;103538.06;4956507;28;20098;-80
2022/01/25 04:03:18;;;;;;;10.02;9.13;;;;;;;17.50;49.31;103543.25;4956387;28;20058;-80
2022/01/25 04:08:13;;;;;;;10.43;9.52;;;;;;;17.52;48.77;103543.31;4954856;29;20102;-80
2022/01/25 04:10:39;;;;;;;9.73;8.82;;;;;;;17.51;49.11;103541.53;4955773;29;20118;-80
2022/01/25 04:13:05;;;;;;;9.95;9.05;;;;;;;17.50;49.28;103535.44;4955219;28;20070;-81
2022/01/25 04:15:31;;;;;;;10.57;9.68;;;;;;;17.50;49.03;103542.38;4955197;29;20054;-80
2022/01/25 04:18:20;;;;;;;10.20;9.20;;;;;;;17.50;49.35;103539.78;4955093;28;20561;-80
2022/01/25 04:20:56;;;;;;;9.65;8.75;;;;;;;17.50;49.27;103545.88;4955640;29;20059;-80
2022/01/25 04:26:06;;;;;;;9.95;8.77;;;;;;;17.48;48.95;103538.03;4960981;29;20089;-80
2022/01/25 04:28:31;;;;;;;9.90;9.00;;;;;;;17.48;48.87;103530.22;4960306;28;20095;-80
2022/01/25 04:30:56;;;;;;;9.50;8.60;;;;;;;17.48;49.10;103525.00;4944118;29;20478;-80
2022/01/25 04:33:28;;;;;;;10.32;9.43;;;;;;;17.47;49.03;103525.81;4930913;29;20499;-80
2022/01/25 04:36:10;;;;;;;9.70;8.80;;;;;;;17.47;49.22;103519.75;4925777;29;20605;-80
2022/01/25 04:49:34;;;;;;;9.43;8.63;;;;;;;17.46;49.09;103511.06;4958387;28;20054;-80
2022/01/25 04:52:05;;;;;;;9.35;8.50;;;;;;;17.46;48.91;103515.34;4926730;29;20058;-80
2022/01/25 04:57:12;;;;;;;9.40;8.50;;;;;;;17.44;49.38;103504.91;4959564;28;20027;-80
2022/01/25 04:59:58;;;;;;;8.82;8.02;;;;;;;17.46;49.09;103512.75;4959251;28;20027;-80
2022/01/25 05:05:12;;;;;;;9.13;8.23;;;;;;;17.45;49.05;103508.38;4943888;29;20035;-81
2022/01/25 05:10:08;;;;;;;9.15;8.25;;;;;;;17.44;49.25;103501.41;4958682;29;20031;-81
2022/01/25 05:15:20;;;;;;;8.93;8.13;;;;;;;17.44;48.91;103504.00;4963448;28;20035;-80
2022/01/25 05:18:00;;;;;;;9.02;8.23;;;;;;;17.43;48.93;103500.53;4956929;28;20387;-81
2022/01/25 05:23:09;;;;;;;;;;;;;;;17.43;48.96;103499.66;4958535;29;20120;-81
2022/01/25 05:25:34;;;;;;;8.75;7.95;;;;;;;17.42;48.92;103500.47;4964417;28;20369;-81
2022/01/25 05:28:00;;;;;;;8.70;7.90;;;;;;;17.42;48.95;103503.97;4947729;29;20114;-81
2022/01/25 05:30:25;;;;;;;8.45;7.65;;;;;;;17.41;48.77;103512.59;4948240;29;20028;-80
2022/01/25 05:32:50;;;;;;;9.10;8.30;;;;;;;17.41;48.87;103506.50;4931933;29;20031;-80
2022/01/25 05:35:16;;;;;;;8.30;7.60;;;;;;;17.41;49.16;103511.72;4947086;29;20042;-80
2022/01/25 05:37:42;;;;;;;8.98;8.15;;;;;;;17.41;48.68;103512.59;4964577;28;20094;-80
2022/01/25 05:40:14;;;;;;;8.80;8.00;;;;;;;17.40;49.13;103507.38;4931615;29;20103;-81
2022/01/25 05:43:53;;;;;;;8.57;7.63;;;;;;;17.41;48.76;103510.00;4964609;28;20023;-81
2022/01/25 05:45:38;;;;;;;8.82;8.00;;;;;;;17.40;48.77;103515.19;4963353;29;20039;-81
2022/01/25 05:48:04;;;;;;;8.77;7.97;;;;;;;17.40;48.73;103518.66;4949903;29;20086;-81
2022/01/25 05:50:29;;;;;;;8.68;7.90;;;;;;;17.40;48.71;103523.84;4947602;29;20028;-81
2022/01/25 05:52:54;;;;;;;8.65;7.85;;;;;;;17.41;48.85;103522.13;4929487;29;20478;-80
2022/01/25 05:55:20;;;;;;;8.60;7.80;;;;;;;17.39;48.78;103518.59;4961228;29;20027;-80
2022/01/25 05:57:45;;;;;;;8.07;7.38;;;;;;;17.38;48.48;103525.53;4947203;29;20139;-80
2022/01/25 06:00:12;;;;;;;8.60;7.80;;;;;;;17.40;48.81;103536.00;4927581;29;20031;-79
2022/01/25 06:02:37;;;;;;;8.63;7.82;;;;;;;17.39;48.91;103526.41;4928834;29;20046;-80
2022/01/25 06:05:05;;;;;;;8.45;7.68;;;;;;;17.39;48.98;103534.22;4944691;29;20023;-80
2022/01/25 06:07:30;;;;;;;7.82;7.13;;;;;;;17.38;49.64;103528.13;4960946;29;20023;-80
2022/01/25 06:09:56;;;;;;;7.70;7.00;;;;;;;17.37;49.41;103525.47;4961300;28;20099;-80
2022/01/25 06:12:21;;;;;;;7.55;6.85;;;;;;;17.37;49.47;103528.94;4960966;29;20028;-80
2022/01/25 06:14:46;;;;;;;7.57;6.90;;;;;;;17.39;49.57;103529.00;4929491;29;20089;-83
2022/01/25 06:17:12;;;;;;;7.97;7.28;;;;;;;17.40;49.65;103530.78;4947643;29;20039;-80
2022/01/25 06:19:37;;;;;;;8.55;7.53;;;;;;;17.41;49.56;103528.22;4929167;29;20047;-80
2022/01/25 06:22:22;;;;;;;8.57;7.68;;;;;;;17.41;49.44;103532.53;4940847;29;20034;-84
2022/01/25 06:24:48;;;;;;;7.90;7.03;;;;;;;17.42;49.72;103536.91;4974851;28;20035;-80
2022/01/25 06:27:16;;;;;;;8.32;7.25;;;;;;;17.41;49.62;103530.81;4968888;28;20037;-81
2022/01/25 06:29:45;;;;;;;11.18;7.88;;;;;;;17.40;49.72;103531.66;4965433;28;20118;-83
2022/01/25 06:32:12;;;;;;;9.35;7.47;;;;;;;17.41;49.79;103535.16;4946611;29;20086;-80
2022/01/25 06:34:37;;;;;;;12.23;7.60;;;;;;;17.39;49.73;103529.88;4962320;29;20054;-80
2022/01/25 06:37:03;;;;;;;9.15;7.65;;;;;;;17.40;49.78;103533.41;4961055;29;20031;-80
2022/01/25 06:39:28;;;;;;;12.65;7.47;;;;;;;17.42;49.53;103534.31;4944863;29;20038;-81
2022/01/25 06:41:54;;;;;;;11.52;7.82;;;;;;;17.43;50.01;103538.69;4929989;29;20027;-81
2022/01/25 06:44:19;;;;;;;11.50;7.75;;;;;;;17.42;50.00;103536.91;4945901;29;20027;-81
2022/01/25 06:46:46;;;;;;;12.63;7.97;;;;;;;17.42;50.14;103529.09;4930032;29;20101;-81
2022/01/25 06:49:13;;;;;;;9.65;7.80;;;;;;;17.42;50.00;103535.22;4945939;29;20027;-81
2022/01/25 06:51:39;;;;;;;10.27;7.57;;;;;;;17.43;50.12;103530.88;4961469;28;20027;-81
2022/01/25 06:54:04;;;;;;;9.75;7.78;;;;;;;17.42;50.10;103532.59;4963900;29;20027;-81
2022/01/25 06:56:30;;;;;;;9.10;7.13;;;;;;;17.41;50.12;103538.63;4944779;29;20042;-81
2022/01/25 06:58:58;;;;;;;10.20;7.32;;;;;;;17.42;49.96;103540.41;4963665;28;20477;-85
2022/01/25 07:01:24;;;;;;;10.55;7.03;;;;;;;17.43;49.73;103544.78;4956405;29;20117;-82
2022/01/25 07:03:49;;;;;;;11.40;7.50;;;;;;;17.42;50.19;103545.63;4951896;29;20569;-81
2022/01/25 07:06:16;;;;;;;12.75;7.45;;;;;;;17.43;50.03;103544.78;4955428;29;20039;-81
2022/01/25 07:08:45;;;;;;;12.52;7.05;;;;;;;17.44;50.26;103543.03;4974416;28;20446;-80
2022/01/25 07:11:12;;;;;;;11.02;7.70;;;;;;;17.44;50.25;103540.44;4952068;29;20090;-80
2022/01/25 07:13:37;;;;;;;12.52;7.70;;;;;;;17.45;50.13;103544.84;4952862;29;20490;-79
2022/01/25 07:16:03;;;;;;;9.77;7.32;;;;;;;17.45;50.10;103550.91;4973189;29;20042;-80
2022/01/25 07:18:28;;;;;;;9.70;7.63;;;;;;;17.45;50.13;103542.22;4973529;28;20031;-79
2022/01/25 07:20:54;;;;;;;8.82;7.03;;;;;;;17.45;50.24;103552.66;4969415;29;20039;-79
2022/01/25 07:23:19;;;;;;;9.73;7.57;;;;;;;17.45;50.08;103545.72;4948225;29;20044;-79
2022/01/25 07:25:45;;;;;;;13.05;7.32;;;;;;;17.45;50.21;103550.03;4964196;28;20031;-79
2022/01/25 07:28:10;;;;;;;8.88;7.10;;;;;;;17.46;50.14;103550.09;4951825;29;20035;-79
2022/01/25 07:30:36;;;;;;;11.52;6.82;;;;;;;17.45;50.29;103550.91;4956618;29;20031;-79
2022/01/25 07:33:05;;;;;;;9.13;7.18;;;;;;;17.46;50.46;103547.50;4973688;29;20062;-80
2022/01/25 07:35:34;;;;;;;9.57;6.65;;;;;;;17.46;50.26;103536.19;4971209;28;20095;-79
2022/01/25 07:38:01;;;;;;;8.80;6.65;;;;;;;17.45;50.24;103534.44;4969429;28;20038;-78
2022/01/25 07:40:26;;;;;;;8.93;7.07;;;;;;;17.46;50.29;103536.19;4971249;28;20082;-79
2022/01/25 07:42:52;;;;;;;7.97;7.18;;;;;;;17.45;50.01;103537.91;4952193;29;20035;-78
2022/01/25 07:45:17;;;;;;;13.43;6.95;;;;;;;17.47;50.41;103532.75;4954958;29;20039;-81
2022/01/25 07:47:43;;;;;;;9.50;6.45;;;;;;;17.52;49.94;103531.19;4952383;29;20039;-78
2022/01/25 07:50:10;;;;;;;12.90;6.30;;;;;;;17.63;50.19;103537.63;4950936;29;20059;-78
2022/01/25 07:52:36;;;;;;;9.45;6.90;;;;;;;17.69;49.72;103534.34;4965476;28;20031;-78
2022/01/25 07:55:04;;;;;;;7.88;6.70;;;;;;;17.72;49.94;103533.56;4966082;28;20023;-78
2022/01/25 07:57:29;;;;;;;9.55;6.57;;;;;;;17.73;50.07;103541.44;4966411;29;20094;-79
2022/01/25 07:59:55;;;;;;;7.53;6.43;;;;;;;17.73;50.18;103536.22;4934240;29;20050;-79
2022/01/25 08:02:20;;;;;;;8.15;6.40;;;;;;;17.74;49.90;103529.28;4965240;29;20039;-78
2022/01/25 08:04:46;;;;;;;9.48;6.78;;;;;;;17.75;50.00;103531.09;4943695;29;20071;-78
2022/01/25 08:07:12;;;;;;;8.48;6.40;;;;;;;17.74;49.97;103540.59;4957671;29;20387;-78
2022/01/25 08:09:38;;;;;;;9.90;6.85;;;;;;;17.77;49.58;103535.50;4945153;29;20027;-78
2022/01/25 08:12:03;;;;;;;8.77;6.10;;;;;;;17.77;50.01;103534.59;4956866;29;20035;-78
2022/01/25 08:14:29;;;;;;;7.10;5.93;;;;;;;17.77;49.78;103548.53;4956888;28;20038;-78
2022/01/25 08:16:54;;;;;;;8.00;6.07;;;;;;;17.79;49.74;103546.84;4956538;29;20041;-78
2022/01/25 08:19:20;;;;;;;7.25;5.82;;;;;;;17.80;49.59;103534.72;4956303;28;20051;-77
2022/01/25 08:21:47;;;;;;;7.03;5.57;;;;;;;17.78;49.72;103532.03;4956573;28;20027;-78
2022/01/25 08:24:14;;;;;;;6.32;5.65;;;;;;;17.80;49.42;103535.59;4940754;29;20027;-78
2022/01/25 08:26:42;;;;;;;7.93;6.15;;;;;;;17.81;49.64;103526.03;4955737;28;20030;-78
2022/01/25 08:29:09;;;;;;;6.68;5.75;;;;;;;17.80;49.53;103532.97;4955499;29;20034;-78
2022/01/25 08:31:35;;;;;;;6.78;5.82;;;;;;;17.81;49.48;103526.94;4955640;28;20162;-77
2022/01/25 08:34:00;;;;;;;6.50;5.68;;;;;;;17.83;49.49;103529.63;4956228;28;20074;-78
2022/01/25 08:36:27;;;;;;;6.70;5.85;;;;;;;17.82;49.49;103530.47;4957248;28;20027;-78
2022/01/25 08:38:53;;;;;;;10.45;6.35;;;;;;;17.82;49.54;103520.94;4924216;29;20035;-78
2022/01/25 08:41:18;;;;;;;7.32;5.90;;;;;;;17.83;49.43;103527.91;4954958;28;20023;-78
2022/01/25 08:43:44;;;;;;;6.20;5.40;;;;;;;17.83;49.48;103527.91;4956184;28;20154;-78
2022/01/25 08:46:10;;;;;;;6.88;5.82;;;;;;;17.83;49.37;103533.13;4939065;29;20067;-78
2022/01/25 08:48:36;;;;;;;6.32;5.70;;;;;;;17.85;49.38;103535.75;4939332;29;20510;-78
2022/01/25 08:51:02;;;;;;;6.53;5.82;;;;;;;17.86;49.54;103532.34;4939355;29;20054;-79
2022/01/25 08:53:27;;;;;;;6.25;5.30;;;;;;;17.85;49.38;103528.81;4939111;29;20039;-77
2022/01/25 08:55:53;;;;;;;6.82;5.50;;;;;;;17.87;49.28;103531.50;4955543;29;20521;-78
2022/01/25 08:58:18;;;;;;;6.63;5.30;;;;;;;17.87;49.36;103532.38;4939321;29;20051;-78
2022/01/25 09:00:44;;;;;;;6.32;5.72;;;;;;;17.87;49.38;103539.31;4955218;28;20031;-78
2022/01/25 09:03:12;;;;;;;5.78;5.18;;;;;;;17.88;49.28;103541.09;4940041;29;20485;-78
2022/01/25 09:05:37;;;;;;;6.75;5.45;;;;;;;17.88;49.28;103541.09;4955308;28;20035;-78
2022/01/25 09:08:04;;;;;;;5.82;5.22;;;;;;;17.86;49.35;103541.03;4939693;29;20501;-78
2022/01/25 09:10:30;;;;;;;5.63;5.03;;;;;;;17.89;49.14;103543.72;4959107;29;20024;-78
2022/01/25 09:12:56;;;;;;;6.68;5.20;;;;;;;17.92;49.19;103544.66;4947689;29;20046;-80
2022/01/25 09:15:22;;;;;;;5.90;5.30;;;;;;;17.91;49.34;103546.38;4963896;28;20039;-78
2022/01/25 09:17:48;;;;;;;6.07;5.47;;;;;;;17.96;49.06;103560.44;4939986;29;20089;-78
2022/01/25 09:20:14;;;;;;;6.20;5.60;;;;;;;17.95;49.00;103552.59;4956140;28;20075;-78
2022/01/25 09:22:40;;;;;;;6.10;5.50;;;;;;;17.95;49.18;103550.88;4923290;29;20058;-78
2022/01/25 09:25:06;;;;;;;5.97;5.38;;;;;;;17.94;49.06;103556.00;4954637;28;20042;-78
2022/01/25 09:27:31;;;;;;;6.80;5.60;;;;;;;17.94;49.14;103556.88;4954597;28;20028;-78
2022/01/25 09:29:57;;;;;;;8.35;5.53;;;;;;;17.95;49.24;103552.59;4954846;29;20020;-77
2022/01/25 09:32:22;;;;;;;7.93;5.55;;;;;;;17.95;49.18;103557.81;4954690;29;20027;-78
2022/01/25 09:34:48;;;;;;;5.80;5.30;;;;;;;17.97;49.02;103562.22;4939914;29;20035;-78
2022/01/25 09:37:14;;;;;;;5.28;4.78;;;;;;;18.00;49.25;103558.81;4955151;28;20114;-78
2022/01/25 09:39:39;;;;;;;6.18;5.45;;;;;;;17.98;49.28;103566.56;4955349;28;20038;-79
2022/01/25 09:42:09;;;;;;;6.10;5.45;;;;;;;17.97;49.22;103561.34;4955840;28;20020;-78
2022/01/25 09:44:40;;;;;;;6.68;5.53;;;;;;;17.96;49.26;103563.03;4939260;29;20028;-78
2022/01/25 09:47:06;;;;;;;6.93;5.40;;;;;;;17.97;49.35;103567.44;4954543;28;20026;-78
2022/01/25 09:49:33;;;;;;;6.55;5.57;;;;;;;17.98;49.11;103576.13;4938391;29;20042;-78
2022/01/25 09:52:01;;;;;;;8.40;5.38;;;;;;;17.96;49.42;103583.00;4954203;29;20130;-78
2022/01/25 09:54:27;;;;;;;9.82;5.40;;;;;;;17.99;49.14;103580.53;4954273;28;20023;-79
2022/01/25 09:56:52;;;;;;;5.75;5.25;;;;;;;17.98;49.45;103578.72;4938508;29;20557;-78
2022/01/25 09:59:18;;;;;;;5.75;5.22;;;;;;;17.99;49.33;103583.13;4922408;29;20537;-77
2022/01/25 10:01:43;;;;;;;5.75;5.25;;;;;;;17.99;49.35;103585.72;4922468;29;20023;-78
2022/01/25 10:04:33;;;;;;;5.88;4.88;;;;;;;18.01;49.24;103589.28;4954768;28;20386;-78
2022/01/25 10:06:58;;;;;;;5.90;5.30;;;;;;;18.01;49.10;103590.16;4959496;29;20058;-78
2022/01/25 10:09:25;;;;;;;6.40;5.50;;;;;;;18.02;49.28;103593.63;4943468;29;20035;-78
2022/01/25 10:11:51;;;;;;;6.18;5.57;;;;;;;18.02;48.95;103588.41;4960384;28;20024;-78
2022/01/25 10:14:17;;;;;;;6.60;5.05;;;;;;;18.02;49.25;103596.25;4925893;29;20034;-77
2022/01/25 10:16:43;;;;;;;5.95;5.30;;;;;;;18.02;49.31;103597.13;4941756;29;20054;-78
2022/01/25 10:19:12;;;;;;;5.88;5.32;;;;;;;18.01;49.48;103599.69;4957143;28;20043;-77
2022/01/25 10:21:43;;;;;;;6.07;5.47;;;;;;;18.02;49.56;103599.72;4957433;28;20023;-78
2022/01/25 10:24:11;;;;;;;5.90;5.30;;;;;;;18.02;49.44;103602.31;4958867;28;20049;-78
2022/01/25 10:26:47;;;;;;;6.03;5.43;;;;;;;18.02;49.36;103606.66;4958544;28;20102;-77
2022/01/25 10:29:15;;;;;;;6.80;5.50;;;;;;;18.02;49.23;103599.72;4963854;28;20562;-78
2022/01/25 10:31:47;;;;;;;5.68;5.07;;;;;;;18.04;49.24;103605.00;4966199;29;20123;-78
2022/01/25 10:34:15;;;;;;;5.93;5.32;;;;;;;18.03;49.30;103598.91;4962698;28;20031;-77
2022/01/25 10:36:45;;;;;;;6.15;5.60;;;;;;;18.05;49.37;103601.53;4959856;29;20033;-77
2022/01/25 10:39:11;;;;;;;5.82;5.32;;;;;;;18.06;49.25;103599.00;4959608;29;20113;-77
2022/01/25 10:41:38;;;;;;;5.63;5.10;;;;;;;18.05;49.47;103597.22;4958738;29;20035;-78
2022/01/25 10:44:06;;;;;;;5.97;5.38;;;;;;;18.05;49.19;103597.22;4960039;28;20383;-78
2022/01/25 10:46:32;;;;;;;6.10;5.50;;;;;;;18.06;48.96;103600.72;4942194;29;20041;-77
2022/01/25 10:48:58;;;;;;;5.60;5.10;;;;;;;18.06;49.21;103603.31;4941943;29;20125;-77
2022/01/25 10:51:39;;;;;;;5.65;5.15;;;;;;;18.07;49.08;103610.28;4958973;28;20054;-77
2022/01/25 10:54:08;;;;;;;5.93;5.32;;;;;;;18.06;49.09;103614.63;4957327;28;20077;-78
2022/01/25 10:56:43;;;;;;;5.78;4.97;;;;;;;18.07;49.23;103615.50;4958796;29;20019;-77
2022/01/25 10:59:12;;;;;;;5.85;5.35;;;;;;;18.07;49.45;103611.19;4962305;28;20024;-77
2022/01/25 11:01:40;;;;;;;5.65;5.13;;;;;;;18.10;49.14;103615.63;4957366;28;20074;-77
2022/01/25 11:04:14;;;;;;;5.57;5.07;;;;;;;18.11;49.07;103603.47;4958676;28;20047;-78
2022/01/25 11:06:42;;;;;;;5.93;5.43;;;;;;;18.10;49.23;103607.81;4958605;28;20027;-79
2022/01/25 11:09:10;;;;;;;5.78;5.28;;;;;;;18.11;49.22;103604.34;4958105;29;20037;-79
2022/01/25 11:11:44;;;;;;;8.48;5.40;;;;;;;18.11;49.35;103606.94;4965000;29;20027;-78
2022/01/25 11:16:54;;;;;;;;;;;;;;;18.12;49.05;103598.31;4945884;29;20086;-79
2022/01/25 11:19:22;;;;;;;5.75;5.25;;;;;;;18.12;49.01;103605.22;4943756;29;19950;-78
2022/01/25 11:21:48;;;;;;;5.70;5.18;;;;;;;18.11;49.27;103596.53;4958232;28;20113;-79
2022/01/25 11:24:16;;;;;;;6.90;5.22;;;;;;;18.12;49.08;103602.63;4957674;29;20557;-78
2022/01/25 11:26:43;;;;;;;5.53;5.00;;;;;;;18.11;49.36;103593.91;4957688;29;20042;-77
2022/01/25 11:29:10;;;;;;;5.72;5.22;;;;;;;18.12;49.20;103587.88;4942262;29;20442;-78
2022/01/25 11:31:39;;;;;;;5.57;5.07;;;;;;;18.13;49.08;103584.44;4942224;29;20031;-78
2022/01/25 11:34:12;;;;;;;5.85;5.20;;;;;;;18.13;49.29;103588.78;4958810;28;20115;-80
2022/01/25 11:36:58;;;;;;;5.87;5.27;;;;;;;18.14;49.13;103582.72;4959889;28;20027;-79
2022/01/25 11:39:26;;;;;;;6.25;4.97;;;;;;;18.14;49.09;103577.50;4959614;28;20027;-78
2022/01/25 11:42:02;;;;;;;5.57;5.07;;;;;;;18.17;48.99;103577.59;4959349;28;20027;-78
2022/01/25 11:44:27;;;;;;;5.47;4.97;;;;;;;18.17;48.98;103580.22;4958352;28;20034;-79
2022/01/25 11:47:09;;;;;;;5.55;5.05;;;;;;;18.16;49.03;103566.31;4925868;29;20027;-78
2022/01/25 11:49:48;;;;;;;5.57;4.93;;;;;;;18.14;49.03;103562.75;4961191;28;20071;-84
2022/01/25 11:52:14;;;;;;;6.13;5.22;;;;;;;18.14;48.96;103567.97;4977763;28;20019;-78
2022/01/25 11:54:41;;;;;;;5.85;5.32;;;;;;;18.14;49.02;103556.63;4970129;29;20043;-81
2022/01/25 11:57:15;;;;;;;6.20;5.47;;;;;;;18.13;49.12;103563.59;4977254;28;20023;-83
2022/01/25 12:01:09;;;;;;;6.65;5.95;;;;;;;18.10;49.12;103558.28;4977193;28;20027;-86
2022/01/25 12:03:54;;;;;;;7.38;6.68;;;;;;;18.11;48.82;103556.56;4971734;28;20027;-81
2022/01/25 12:06:32;;;;;;;7.78;6.97;;;;;;;18.09;48.64;103547.00;4971639;29;20474;-78
2022/01/25 12:11:57;;;;;;;10.20;8.60;;;;;;;18.11;47.55;103547.00;4966107;28;20035;-78
2022/01/25 12:14:48;;;;;;;10.13;8.75;;;;;;;18.09;47.63;103538.25;4963225;28;20039;-78
2022/01/25 12:17:26;;;;;;;15.75;9.73;;;;;;;18.09;47.18;103538.25;4959165;29;20089;-77
2022/01/25 12:19:54;;;;;;;11.18;9.23;;;;;;;18.08;47.22;103526.09;4959580;28;20138;-77
2022/01/25 12:25:08;;;;;;;12.80;9.60;;;;;;;18.09;47.08;103525.22;4960308;28;20466;-77
2022/01/25 12:27:35;;;;;;;12.38;9.43;;;;;;;18.09;46.81;103526.13;4960297;28;20082;-78
2022/01/25 12:30:08;;;;;;;11.55;9.57;;;;;;;18.09;46.71;103520.03;4959129;28;20474;-78
2022/01/25 12:32:58;;;;;;;12.48;9.30;;;;;;;18.09;46.61;103518.31;4957708;28;20058;-78
2022/01/25 12:35:54;;;;;;;10.77;9.68;;;;;;;18.11;46.63;103514.88;4957396;28;20054;-77
2022/01/25 12:38:27;;;;;;;12.52;10.20;;;;;;;18.12;46.71;103509.72;4958287;28;20051;-77
2022/01/25 12:40:56;;;;;;;10.50;9.32;;;;;;;18.12;46.57;103512.31;4959339;29;20023;-77
2022/01/25 12:43:24;;;;;;;10.77;9.55;;;;;;;18.13;46.58;103511.47;4958144;28;20027;-77
2022/01/25 12:46:05;;;;;;;11.02;9.88;;;;;;;18.14;46.49;103507.13;4959920;28;20027;-77
2022/01/25 12:48:46;;;;;;;11.43;10.25;;;;;;;18.15;46.16;103506.31;4958503;28;20035;-78
2022/01/25 12:51:17;;;;;;;11.50;10.40;;;;;;;18.15;46.54;103503.69;4958731;29;20031;-77
2022/01/25 12:53:45;;;;;;;11.73;10.45;;;;;;;18.15;46.84;103503.69;4958591;29;20389;-77
2022/01/25 12:56:15;;;;;;;13.70;11.57;;;;;;;18.14;46.48;103512.34;4957568;29;20059;-77
2022/01/25 12:58:42;;;;;;;11.88;10.20;;;;;;;18.15;46.70;103511.53;4956255;29;20030;-77
2022/01/25 13:01:11;;;;;;;11.57;10.48;;;;;;;18.15;46.34;103507.19;4941175;29;20038;-78
2022/01/25 13:03:46;;;;;;;11.35;10.02;;;;;;;18.15;46.61;103504.56;4964071;28;20026;-77
2022/01/25 13:06:15;;;;;;;11.88;10.75;;;;;;;18.16;46.39;103508.97;4965817;28;20548;-77
2022/01/25 13:09:35;;;;;;;11.73;10.32;;;;;;;18.17;46.40;103504.63;4960407;29;20030;-77
2022/01/25 13:11:57;;;;;;;11.98;10.25;;;;;;;18.15;46.72;103501.09;4956249;29;20035;-77